sensor_id;sensor_type;location;lat;lon;timestamp;temperature;humidity
69436;SHT31;56625;54.322;18.582;2023-06-19T00:00:13;15.69;82.52
69436;SHT31;56625;54.322;18.582;2023-06-19T00:03:01;15.65;82.66
69436;SHT31;56625;54.322;18.582;2023-06-19T00:05:28;15.59;82.86
69436;SHT31;56625;54.322;18.582;2023-06-19T00:07:55;15.55;82.80
69436;SHT31;56625;54.322;18.582;2023-06-19T00:10:21;15.51;82.83
69436;SHT31;56625;54.322;18.582;2023-06-19T00:12:48;15.49;82.94
69436;SHT31;56625;54.322;18.582;2023-06-19T00:15:15;15.47;83.07
69436;SHT31;56625;54.322;18.582;2023-06-19T00:17:41;15.47;83.09
69436;SHT31;56625;54.322;18.582;2023-06-19T00:20:09;15.45;83.17
69436;SHT31;56625;54.322;18.582;2023-06-19T00:22:36;15.44;83.09
69436;SHT31;56625;54.322;18.582;2023-06-19T00:25:02;15.44;83.02
69436;SHT31;56625;54.322;18.582;2023-06-19T00:27:29;15.48;82.94
69436;SHT31;56625;54.322;18.582;2023-06-19T00:29:56;15.47;82.85
69436;SHT31;56625;54.322;18.582;2023-06-19T00:32:28;15.45;83.07
69436;SHT31;56625;54.322;18.582;2023-06-19T00:34:55;15.40;83.37
69436;SHT31;56625;54.322;18.582;2023-06-19T00:37:22;15.33;83.68
69436;SHT31;56625;54.322;18.582;2023-06-19T00:39:49;15.25;83.80
69436;SHT31;56625;54.322;18.582;2023-06-19T00:42:15;15.21;83.70
69436;SHT31;56625;54.322;18.582;2023-06-19T00:44:42;15.19;83.63
69436;SHT31;56625;54.322;18.582;2023-06-19T00:47:09;15.17;83.50
69436;SHT31;56625;54.322;18.582;2023-06-19T00:49:36;15.17;83.42
69436;SHT31;56625;54.322;18.582;2023-06-19T00:52:03;15.16;83.44
69436;SHT31;56625;54.322;18.582;2023-06-19T00:54:30;15.13;83.63
69436;SHT31;56625;54.322;18.582;2023-06-19T00:56:58;15.10;83.77
69436;SHT31;56625;54.322;18.582;2023-06-19T00:59:26;15.05;83.74
69436;SHT31;56625;54.322;18.582;2023-06-19T01:01:53;15.02;83.73
69436;SHT31;56625;54.322;18.582;2023-06-19T01:04:19;15.00;83.79
69436;SHT31;56625;54.322;18.582;2023-06-19T01:06:50;14.98;83.79
69436;SHT31;56625;54.322;18.582;2023-06-19T01:09:31;14.97;83.77
69436;SHT31;56625;54.322;18.582;2023-06-19T01:12:12;14.95;83.76
69436;SHT31;56625;54.322;18.582;2023-06-19T01:14:59;14.94;83.78
69436;SHT31;56625;54.322;18.582;2023-06-19T01:17:29;14.90;83.96
69436;SHT31;56625;54.322;18.582;2023-06-19T01:19:57;14.85;84.18
69436;SHT31;56625;54.322;18.582;2023-06-19T01:22:26;14.79;84.37
69436;SHT31;56625;54.322;18.582;2023-06-19T01:24:56;14.73;84.58
69436;SHT31;56625;54.322;18.582;2023-06-19T01:27:26;14.69;84.80
69436;SHT31;56625;54.322;18.582;2023-06-19T01:29:58;14.66;84.88
69436;SHT31;56625;54.322;18.582;2023-06-19T01:32:34;14.63;84.81
69436;SHT31;56625;54.322;18.582;2023-06-19T01:35:23;14.64;84.80
69436;SHT31;56625;54.322;18.582;2023-06-19T01:37:54;14.64;84.72
69436;SHT31;56625;54.322;18.582;2023-06-19T01:40:23;14.66;84.64
69436;SHT31;56625;54.322;18.582;2023-06-19T01:42:53;14.67;84.60
69436;SHT31;56625;54.322;18.582;2023-06-19T01:45:21;14.66;84.67
69436;SHT31;56625;54.322;18.582;2023-06-19T01:47:47;14.66;84.80
69436;SHT31;56625;54.322;18.582;2023-06-19T01:50:14;14.65;84.72
69436;SHT31;56625;54.322;18.582;2023-06-19T01:52:41;14.62;84.71
69436;SHT31;56625;54.322;18.582;2023-06-19T01:55:09;14.62;84.85
69436;SHT31;56625;54.322;18.582;2023-06-19T01:57:37;14.62;84.92
69436;SHT31;56625;54.322;18.582;2023-06-19T02:00:04;14.60;84.89
69436;SHT31;56625;54.322;18.582;2023-06-19T02:02:34;14.54;84.93
69436;SHT31;56625;54.322;18.582;2023-06-19T02:05:02;14.50;85.10
69436;SHT31;56625;54.322;18.582;2023-06-19T02:07:29;14.49;85.21
69436;SHT31;56625;54.322;18.582;2023-06-19T02:09:57;14.47;85.22
69436;SHT31;56625;54.322;18.582;2023-06-19T02:12:24;14.43;85.19
69436;SHT31;56625;54.322;18.582;2023-06-19T02:14:51;14.37;85.30
69436;SHT31;56625;54.322;18.582;2023-06-19T02:17:18;14.35;85.69
69436;SHT31;56625;54.322;18.582;2023-06-19T02:19:44;14.35;85.70
69436;SHT31;56625;54.322;18.582;2023-06-19T02:22:11;14.36;85.59
69436;SHT31;56625;54.322;18.582;2023-06-19T02:24:40;14.41;85.72
69436;SHT31;56625;54.322;18.582;2023-06-19T02:27:07;14.42;85.46
69436;SHT31;56625;54.322;18.582;2023-06-19T02:29:33;14.39;85.29
69436;SHT31;56625;54.322;18.582;2023-06-19T02:32:00;14.36;85.19
69436;SHT31;56625;54.322;18.582;2023-06-19T02:34:28;14.34;85.26
69436;SHT31;56625;54.322;18.582;2023-06-19T02:36:55;14.35;85.29
69436;SHT31;56625;54.322;18.582;2023-06-19T02:39:22;14.34;85.29
69436;SHT31;56625;54.322;18.582;2023-06-19T02:41:50;14.34;85.30
69436;SHT31;56625;54.322;18.582;2023-06-19T02:44:17;14.37;85.40
69436;SHT31;56625;54.322;18.582;2023-06-19T02:46:44;14.41;85.37
69436;SHT31;56625;54.322;18.582;2023-06-19T02:49:10;14.47;85.47
69436;SHT31;56625;54.322;18.582;2023-06-19T02:51:37;14.53;85.38
69436;SHT31;56625;54.322;18.582;2023-06-19T02:54:08;14.67;85.58
69436;SHT31;56625;54.322;18.582;2023-06-19T02:56:34;14.76;85.15
69436;SHT31;56625;54.322;18.582;2023-06-19T02:59:01;14.75;84.70
69436;SHT31;56625;54.322;18.582;2023-06-19T03:01:27;14.73;84.58
69436;SHT31;56625;54.322;18.582;2023-06-19T03:03:55;14.72;84.59
69436;SHT31;56625;54.322;18.582;2023-06-19T03:06:21;14.70;84.49
69436;SHT31;56625;54.322;18.582;2023-06-19T03:08:48;14.75;84.58
69436;SHT31;56625;54.322;18.582;2023-06-19T03:11:15;14.88;84.78
69436;SHT31;56625;54.322;18.582;2023-06-19T03:16:18;15.12;84.63
69436;SHT31;56625;54.322;18.582;2023-06-19T03:18:45;15.31;84.25
69436;SHT31;56625;54.322;18.582;2023-06-19T03:21:15;15.50;83.80
69436;SHT31;56625;54.322;18.582;2023-06-19T03:23:45;15.76;83.28
69436;SHT31;56625;54.322;18.582;2023-06-19T03:26:11;16.08;82.64
69436;SHT31;56625;54.322;18.582;2023-06-19T03:28:39;16.47;81.73
69436;SHT31;56625;54.322;18.582;2023-06-19T03:31:06;16.82;80.40
69436;SHT31;56625;54.322;18.582;2023-06-19T03:33:33;17.10;79.33
69436;SHT31;56625;54.322;18.582;2023-06-19T03:35:59;17.33;78.21
69436;SHT31;56625;54.322;18.582;2023-06-19T03:38:26;17.52;77.53
69436;SHT31;56625;54.322;18.582;2023-06-19T03:40:53;17.68;76.87
69436;SHT31;56625;54.322;18.582;2023-06-19T03:43:20;17.78;76.13
69436;SHT31;56625;54.322;18.582;2023-06-19T03:45:46;17.86;75.88
69436;SHT31;56625;54.322;18.582;2023-06-19T03:48:13;18.00;75.56
69436;SHT31;56625;54.322;18.582;2023-06-19T03:50:39;18.14;75.12
69436;SHT31;56625;54.322;18.582;2023-06-19T03:53:08;18.32;75.09
69436;SHT31;56625;54.322;18.582;2023-06-19T03:55:38;18.62;74.98
69436;SHT31;56625;54.322;18.582;2023-06-19T03:58:05;18.98;74.17
69436;SHT31;56625;54.322;18.582;2023-06-19T04:00:32;19.25;73.04
69436;SHT31;56625;54.322;18.582;2023-06-19T04:02:59;19.35;72.15
69436;SHT31;56625;54.322;18.582;2023-06-19T04:05:30;19.43;71.90
69436;SHT31;56625;54.322;18.582;2023-06-19T04:08:00;19.53;71.83
69436;SHT31;56625;54.322;18.582;2023-06-19T04:10:27;19.69;71.89
69436;SHT31;56625;54.322;18.582;2023-06-19T04:12:54;19.92;71.52
69436;SHT31;56625;54.322;18.582;2023-06-19T04:15:22;20.11;70.76
69436;SHT31;56625;54.322;18.582;2023-06-19T04:17:49;20.27;70.02
69436;SHT31;56625;54.322;18.582;2023-06-19T04:20:22;20.30;69.59
69436;SHT31;56625;54.322;18.582;2023-06-19T04:22:50;20.31;69.70
69436;SHT31;56625;54.322;18.582;2023-06-19T04:25:16;20.36;69.67
69436;SHT31;56625;54.322;18.582;2023-06-19T04:27:44;20.41;69.59
69436;SHT31;56625;54.322;18.582;2023-06-19T04:30:11;20.43;69.64
69436;SHT31;56625;54.322;18.582;2023-06-19T04:32:38;20.51;69.55
69436;SHT31;56625;54.322;18.582;2023-06-19T04:35:08;20.58;69.31
69436;SHT31;56625;54.322;18.582;2023-06-19T04:37:36;20.61;68.87
69436;SHT31;56625;54.322;18.582;2023-06-19T04:40:03;20.59;69.00
69436;SHT31;56625;54.322;18.582;2023-06-19T04:42:30;20.62;69.16
69436;SHT31;56625;54.322;18.582;2023-06-19T04:44:57;20.68;68.84
69436;SHT31;56625;54.322;18.582;2023-06-19T04:47:25;20.68;68.55
69436;SHT31;56625;54.322;18.582;2023-06-19T04:50:06;20.74;68.69
69436;SHT31;56625;54.322;18.582;2023-06-19T04:52:34;20.78;68.30
69436;SHT31;56625;54.322;18.582;2023-06-19T04:55:01;20.83;68.16
69436;SHT31;56625;54.322;18.582;2023-06-19T04:57:28;20.90;68.18
69436;SHT31;56625;54.322;18.582;2023-06-19T04:59:54;20.93;67.78
69436;SHT31;56625;54.322;18.582;2023-06-19T05:02:21;20.94;67.66
69436;SHT31;56625;54.322;18.582;2023-06-19T05:04:50;20.94;67.33
69436;SHT31;56625;54.322;18.582;2023-06-19T05:07:17;20.96;66.81
69436;SHT31;56625;54.322;18.582;2023-06-19T05:09:44;21.00;67.12
69436;SHT31;56625;54.322;18.582;2023-06-19T05:12:11;21.03;66.40
69436;SHT31;56625;54.322;18.582;2023-06-19T05:14:40;21.06;66.41
69436;SHT31;56625;54.322;18.582;2023-06-19T05:17:07;21.13;66.52
69436;SHT31;56625;54.322;18.582;2023-06-19T05:19:35;21.20;66.01
69436;SHT31;56625;54.322;18.582;2023-06-19T05:22:02;21.25;65.38
69436;SHT31;56625;54.322;18.582;2023-06-19T05:24:32;21.26;65.47
69436;SHT31;56625;54.322;18.582;2023-06-19T05:27:00;21.35;65.69
69436;SHT31;56625;54.322;18.582;2023-06-19T05:29:29;21.45;65.00
69436;SHT31;56625;54.322;18.582;2023-06-19T05:31:58;21.53;65.13
69436;SHT31;56625;54.322;18.582;2023-06-19T05:34:25;21.66;65.00
69436;SHT31;56625;54.322;18.582;2023-06-19T05:36:52;21.80;64.50
69436;SHT31;56625;54.322;18.582;2023-06-19T05:39:18;21.86;63.86
69436;SHT31;56625;54.322;18.582;2023-06-19T05:41:45;21.95;64.02
69436;SHT31;56625;54.322;18.582;2023-06-19T05:44:12;22.08;63.96
69436;SHT31;56625;54.322;18.582;2023-06-19T05:46:43;22.24;62.88
69436;SHT31;56625;54.322;18.582;2023-06-19T05:49:10;22.29;61.06
69436;SHT31;56625;54.322;18.582;2023-06-19T05:51:36;22.31;61.18
69436;SHT31;56625;54.322;18.582;2023-06-19T05:54:03;22.35;60.80
69436;SHT31;56625;54.322;18.582;2023-06-19T05:56:31;22.35;61.15
69436;SHT31;56625;54.322;18.582;2023-06-19T05:58:59;22.36;61.00
69436;SHT31;56625;54.322;18.582;2023-06-19T06:01:28;22.36;61.32
69436;SHT31;56625;54.322;18.582;2023-06-19T06:03:55;22.44;61.73
69436;SHT31;56625;54.322;18.582;2023-06-19T06:06:23;22.52;61.20
69436;SHT31;56625;54.322;18.582;2023-06-19T06:08:50;22.54;61.34
69436;SHT31;56625;54.322;18.582;2023-06-19T06:11:17;22.66;60.97
69436;SHT31;56625;54.322;18.582;2023-06-19T06:13:44;22.74;61.10
69436;SHT31;56625;54.322;18.582;2023-06-19T06:16:11;22.86;60.93
69436;SHT31;56625;54.322;18.582;2023-06-19T06:18:38;22.93;59.91
69436;SHT31;56625;54.322;18.582;2023-06-19T06:21:06;22.96;59.52
69436;SHT31;56625;54.322;18.582;2023-06-19T06:23:33;23.07;58.89
69436;SHT31;56625;54.322;18.582;2023-06-19T06:26:00;23.16;58.12
69436;SHT31;56625;54.322;18.582;2023-06-19T06:28:30;23.34;57.83
69436;SHT31;56625;54.322;18.582;2023-06-19T06:30:58;23.40;57.66
69436;SHT31;56625;54.322;18.582;2023-06-19T06:33:24;23.43;57.67
69436;SHT31;56625;54.322;18.582;2023-06-19T06:35:54;23.57;57.41
69436;SHT31;56625;54.322;18.582;2023-06-19T06:38:21;23.69;55.47
69436;SHT31;56625;54.322;18.582;2023-06-19T06:40:48;23.57;54.51
69436;SHT31;56625;54.322;18.582;2023-06-19T06:43:17;23.50;55.43
69436;SHT31;56625;54.322;18.582;2023-06-19T06:45:43;23.57;54.40
69436;SHT31;56625;54.322;18.582;2023-06-19T06:48:10;23.56;54.87
69436;SHT31;56625;54.322;18.582;2023-06-19T06:50:37;23.71;55.47
69436;SHT31;56625;54.322;18.582;2023-06-19T06:53:04;23.88;54.63
69436;SHT31;56625;54.322;18.582;2023-06-19T06:55:30;24.05;54.82
69436;SHT31;56625;54.322;18.582;2023-06-19T06:57:57;24.23;54.02
69436;SHT31;56625;54.322;18.582;2023-06-19T07:00:24;24.36;54.16
69436;SHT31;56625;54.322;18.582;2023-06-19T07:02:51;24.55;53.86
69436;SHT31;56625;54.322;18.582;2023-06-19T07:05:18;24.69;52.60
69436;SHT31;56625;54.322;18.582;2023-06-19T07:07:45;24.77;52.50
69436;SHT31;56625;54.322;18.582;2023-06-19T07:10:11;24.87;52.81
69436;SHT31;56625;54.322;18.582;2023-06-19T07:12:47;24.86;50.87
69436;SHT31;56625;54.322;18.582;2023-06-19T07:15:15;24.53;50.05
69436;SHT31;56625;54.322;18.582;2023-06-19T07:17:43;24.27;51.42
69436;SHT31;56625;54.322;18.582;2023-06-19T07:20:11;24.33;52.12
69436;SHT31;56625;54.322;18.582;2023-06-19T07:22:38;24.47;51.49
69436;SHT31;56625;54.322;18.582;2023-06-19T07:25:05;24.58;51.36
69436;SHT31;56625;54.322;18.582;2023-06-19T07:27:33;24.73;51.06
69436;SHT31;56625;54.322;18.582;2023-06-19T07:30:00;24.70;49.83
69436;SHT31;56625;54.322;18.582;2023-06-19T07:32:27;24.77;50.01
69436;SHT31;56625;54.322;18.582;2023-06-19T07:34:53;24.88;48.80
69436;SHT31;56625;54.322;18.582;2023-06-19T07:37:23;24.82;47.85
69436;SHT31;56625;54.322;18.582;2023-06-19T07:39:50;24.79;48.34
69436;SHT31;56625;54.322;18.582;2023-06-19T07:42:18;24.96;49.58
69436;SHT31;56625;54.322;18.582;2023-06-19T07:44:46;25.17;49.11
69436;SHT31;56625;54.322;18.582;2023-06-19T07:47:14;25.39;48.99
69436;SHT31;56625;54.322;18.582;2023-06-19T07:49:44;25.63;48.25
69436;SHT31;56625;54.322;18.582;2023-06-19T07:52:11;25.72;46.92
69436;SHT31;56625;54.322;18.582;2023-06-19T07:54:52;25.54;44.76
69436;SHT31;56625;54.322;18.582;2023-06-19T07:57:22;25.44;46.36
69436;SHT31;56625;54.322;18.582;2023-06-19T07:59:51;25.65;45.40
69436;SHT31;56625;54.322;18.582;2023-06-19T08:02:20;25.80;44.27
69436;SHT31;56625;54.322;18.582;2023-06-19T08:04:48;25.85;44.32
69436;SHT31;56625;54.322;18.582;2023-06-19T08:07:15;26.13;44.79
69436;SHT31;56625;54.322;18.582;2023-06-19T08:09:41;26.30;43.39
69436;SHT31;56625;54.322;18.582;2023-06-19T08:12:08;26.32;43.56
69436;SHT31;56625;54.322;18.582;2023-06-19T08:14:35;26.09;43.13
69436;SHT31;56625;54.322;18.582;2023-06-19T08:17:01;25.81;45.09
69436;SHT31;56625;54.322;18.582;2023-06-19T08:19:28;25.78;45.81
69436;SHT31;56625;54.322;18.582;2023-06-19T08:21:55;25.78;46.24
69436;SHT31;56625;54.322;18.582;2023-06-19T08:24:22;25.91;46.91
69436;SHT31;56625;54.322;18.582;2023-06-19T08:26:48;26.06;47.83
69436;SHT31;56625;54.322;18.582;2023-06-19T08:29:18;25.96;47.72
69436;SHT31;56625;54.322;18.582;2023-06-19T08:31:45;25.79;48.18
69436;SHT31;56625;54.322;18.582;2023-06-19T08:34:11;25.74;48.41
69436;SHT31;56625;54.322;18.582;2023-06-19T08:36:38;25.83;48.56
69436;SHT31;56625;54.322;18.582;2023-06-19T08:39:05;25.97;48.21
69436;SHT31;56625;54.322;18.582;2023-06-19T08:41:36;26.05;48.62
69436;SHT31;56625;54.322;18.582;2023-06-19T08:44:04;26.22;48.59
69436;SHT31;56625;54.322;18.582;2023-06-19T08:46:31;26.28;47.82
69436;SHT31;56625;54.322;18.582;2023-06-19T08:49:00;26.17;47.62
69436;SHT31;56625;54.322;18.582;2023-06-19T08:51:27;26.07;47.53
69436;SHT31;56625;54.322;18.582;2023-06-19T08:54:00;26.00;48.11
69436;SHT31;56625;54.322;18.582;2023-06-19T08:56:30;26.11;47.60
69436;SHT31;56625;54.322;18.582;2023-06-19T08:59:13;26.43;47.58
69436;SHT31;56625;54.322;18.582;2023-06-19T09:01:52;26.87;46.21
69436;SHT31;56625;54.322;18.582;2023-06-19T09:04:21;26.77;45.46
69436;SHT31;56625;54.322;18.582;2023-06-19T09:06:53;26.74;46.50
69436;SHT31;56625;54.322;18.582;2023-06-19T09:09:29;27.07;46.60
69436;SHT31;56625;54.322;18.582;2023-06-19T09:12:01;27.24;45.44
69436;SHT31;56625;54.322;18.582;2023-06-19T09:17:10;26.90;44.33
69436;SHT31;56625;54.322;18.582;2023-06-19T09:19:46;27.00;45.41
69436;SHT31;56625;54.322;18.582;2023-06-19T09:22:15;27.21;45.70
69436;SHT31;56625;54.322;18.582;2023-06-19T09:24:47;27.19;45.40
69436;SHT31;56625;54.322;18.582;2023-06-19T09:27:16;26.98;45.94
69436;SHT31;56625;54.322;18.582;2023-06-19T09:29:46;26.98;45.15
69436;SHT31;56625;54.322;18.582;2023-06-19T09:32:17;27.02;44.79
69436;SHT31;56625;54.322;18.582;2023-06-19T09:34:47;27.11;45.18
69436;SHT31;56625;54.322;18.582;2023-06-19T09:37:22;27.14;43.97
69436;SHT31;56625;54.322;18.582;2023-06-19T09:39:52;27.26;43.74
69436;SHT31;56625;54.322;18.582;2023-06-19T09:42:32;27.53;42.89
69436;SHT31;56625;54.322;18.582;2023-06-19T09:45:01;27.60;42.37
69436;SHT31;56625;54.322;18.582;2023-06-19T09:47:32;27.60;41.66
69436;SHT31;56625;54.322;18.582;2023-06-19T09:50:12;27.73;42.28
69436;SHT31;56625;54.322;18.582;2023-06-19T09:52:42;27.93;41.98
69436;SHT31;56625;54.322;18.582;2023-06-19T09:55:11;27.94;41.94
69436;SHT31;56625;54.322;18.582;2023-06-19T09:57:39;28.19;42.43
69436;SHT31;56625;54.322;18.582;2023-06-19T10:00:09;28.49;41.78
69436;SHT31;56625;54.322;18.582;2023-06-19T10:02:42;28.65;41.94
69436;SHT31;56625;54.322;18.582;2023-06-19T10:05:12;28.82;41.11
69436;SHT31;56625;54.322;18.582;2023-06-19T10:07:44;29.00;40.38
69436;SHT31;56625;54.322;18.582;2023-06-19T10:10:26;29.14;39.70
69436;SHT31;56625;54.322;18.582;2023-06-19T10:12:58;29.08;39.13
69436;SHT31;56625;54.322;18.582;2023-06-19T10:15:40;29.20;38.84
69436;SHT31;56625;54.322;18.582;2023-06-19T10:18:12;29.31;38.91
69436;SHT31;56625;54.322;18.582;2023-06-19T10:20:42;29.46;38.90
69436;SHT31;56625;54.322;18.582;2023-06-19T10:23:14;29.72;39.03
69436;SHT31;56625;54.322;18.582;2023-06-19T10:28:20;29.88;38.01
69436;SHT31;56625;54.322;18.582;2023-06-19T10:30:58;29.44;38.10
69436;SHT31;56625;54.322;18.582;2023-06-19T10:33:33;29.04;38.99
69436;SHT31;56625;54.322;18.582;2023-06-19T10:36:19;29.10;38.78
69436;SHT31;56625;54.322;18.582;2023-06-19T10:38:49;29.03;39.09
69436;SHT31;56625;54.322;18.582;2023-06-19T10:41:20;29.16;39.17
69436;SHT31;56625;54.322;18.582;2023-06-19T10:44:07;29.27;38.41
69436;SHT31;56625;54.322;18.582;2023-06-19T10:46:39;29.31;39.04
69436;SHT31;56625;54.322;18.582;2023-06-19T10:49:07;29.54;38.74
69436;SHT31;56625;54.322;18.582;2023-06-19T10:51:37;29.85;38.49
69436;SHT31;56625;54.322;18.582;2023-06-19T10:54:06;30.02;37.94
69436;SHT31;56625;54.322;18.582;2023-06-19T10:56:34;30.13;38.02
69436;SHT31;56625;54.322;18.582;2023-06-19T10:59:01;30.25;37.71
69436;SHT31;56625;54.322;18.582;2023-06-19T11:01:43;30.21;37.08
69436;SHT31;56625;54.322;18.582;2023-06-19T11:04:13;30.11;36.48
69436;SHT31;56625;54.322;18.582;2023-06-19T11:06:42;29.96;36.77
69436;SHT31;56625;54.322;18.582;2023-06-19T11:09:11;29.95;36.64
69436;SHT31;56625;54.322;18.582;2023-06-19T11:11:40;29.92;36.96
69436;SHT31;56625;54.322;18.582;2023-06-19T11:14:10;30.20;37.77
69436;SHT31;56625;54.322;18.582;2023-06-19T11:16:40;30.56;38.94
69436;SHT31;56625;54.322;18.582;2023-06-19T11:19:09;30.35;39.19
69436;SHT31;56625;54.322;18.582;2023-06-19T11:21:44;29.92;39.04
69436;SHT31;56625;54.322;18.582;2023-06-19T11:24:14;29.27;39.54
69436;SHT31;56625;54.322;18.582;2023-06-19T11:26:42;28.73;41.01
69436;SHT31;56625;54.322;18.582;2023-06-19T11:29:16;28.27;42.05
69436;SHT31;56625;54.322;18.582;2023-06-19T11:31:46;27.91;43.15
69436;SHT31;56625;54.322;18.582;2023-06-19T11:34:15;27.49;44.44
69436;SHT31;56625;54.322;18.582;2023-06-19T11:36:43;27.10;45.27
69436;SHT31;56625;54.322;18.582;2023-06-19T11:39:11;26.80;46.10
69436;SHT31;56625;54.322;18.582;2023-06-19T11:41:40;26.59;46.24
69436;SHT31;56625;54.322;18.582;2023-06-19T11:44:10;26.34;46.43
69436;SHT31;56625;54.322;18.582;2023-06-19T11:46:37;26.11;46.86
69436;SHT31;56625;54.322;18.582;2023-06-19T11:51:46;25.72;47.50
69436;SHT31;56625;54.322;18.582;2023-06-19T11:54:13;25.59;47.76
69436;SHT31;56625;54.322;18.582;2023-06-19T11:56:46;25.55;48.07
69436;SHT31;56625;54.322;18.582;2023-06-19T11:59:16;25.59;48.32
69436;SHT31;56625;54.322;18.582;2023-06-19T12:01:43;25.83;47.59
69436;SHT31;56625;54.322;18.582;2023-06-19T12:04:09;26.20;47.22
69436;SHT31;56625;54.322;18.582;2023-06-19T12:06:36;26.57;46.82
69436;SHT31;56625;54.322;18.582;2023-06-19T12:09:03;26.91;46.60
69436;SHT31;56625;54.322;18.582;2023-06-19T12:11:33;27.31;46.17
69436;SHT31;56625;54.322;18.582;2023-06-19T12:13:59;27.49;46.20
69436;SHT31;56625;54.322;18.582;2023-06-19T12:16:26;27.47;45.41
69436;SHT31;56625;54.322;18.582;2023-06-19T12:18:54;27.50;44.96
69436;SHT31;56625;54.322;18.582;2023-06-19T12:21:21;27.78;44.64
69436;SHT31;56625;54.322;18.582;2023-06-19T12:24:01;28.07;43.89
69436;SHT31;56625;54.322;18.582;2023-06-19T12:26:29;28.20;43.61
69436;SHT31;56625;54.322;18.582;2023-06-19T12:28:55;28.18;43.96
69436;SHT31;56625;54.322;18.582;2023-06-19T12:31:22;28.08;43.27
69436;SHT31;56625;54.322;18.582;2023-06-19T12:33:49;27.91;43.80
69436;SHT31;56625;54.322;18.582;2023-06-19T12:36:15;27.82;44.31
69436;SHT31;56625;54.322;18.582;2023-06-19T12:38:42;27.70;44.60
69436;SHT31;56625;54.322;18.582;2023-06-19T12:41:09;27.47;45.37
69436;SHT31;56625;54.322;18.582;2023-06-19T12:43:35;27.13;46.04
69436;SHT31;56625;54.322;18.582;2023-06-19T12:46:02;26.91;46.73
69436;SHT31;56625;54.322;18.582;2023-06-19T12:48:29;26.72;47.22
69436;SHT31;56625;54.322;18.582;2023-06-19T12:50:56;26.54;47.72
69436;SHT31;56625;54.322;18.582;2023-06-19T12:53:22;26.37;48.25
69436;SHT31;56625;54.322;18.582;2023-06-19T12:55:52;26.27;48.28
69436;SHT31;56625;54.322;18.582;2023-06-19T12:58:27;26.23;48.69
69436;SHT31;56625;54.322;18.582;2023-06-19T13:00:54;26.16;48.54
69436;SHT31;56625;54.322;18.582;2023-06-19T13:03:21;26.05;48.62
69436;SHT31;56625;54.322;18.582;2023-06-19T13:05:48;26.03;49.25
69436;SHT31;56625;54.322;18.582;2023-06-19T13:08:15;26.24;48.67
69436;SHT31;56625;54.322;18.582;2023-06-19T13:10:42;26.36;49.00
69436;SHT31;56625;54.322;18.582;2023-06-19T13:13:08;26.34;49.19
69436;SHT31;56625;54.322;18.582;2023-06-19T13:15:36;26.28;49.30
69436;SHT31;56625;54.322;18.582;2023-06-19T13:18:03;26.21;49.46
69436;SHT31;56625;54.322;18.582;2023-06-19T13:20:40;26.14;49.67
69436;SHT31;56625;54.322;18.582;2023-06-19T13:23:06;26.01;50.03
69436;SHT31;56625;54.322;18.582;2023-06-19T13:25:33;25.90;50.47
69436;SHT31;56625;54.322;18.582;2023-06-19T13:28:00;25.77;50.60
69436;SHT31;56625;54.322;18.582;2023-06-19T13:30:26;25.66;50.66
69436;SHT31;56625;54.322;18.582;2023-06-19T13:32:53;25.63;51.00
69436;SHT31;56625;54.322;18.582;2023-06-19T13:35:19;25.65;51.02
69436;SHT31;56625;54.322;18.582;2023-06-19T13:37:47;25.60;51.20
69436;SHT31;56625;54.322;18.582;2023-06-19T13:40:14;25.52;51.37
69436;SHT31;56625;54.322;18.582;2023-06-19T13:42:40;25.41;51.72
69436;SHT31;56625;54.322;18.582;2023-06-19T13:45:07;25.44;51.94
69436;SHT31;56625;54.322;18.582;2023-06-19T13:47:35;25.67;51.89
69436;SHT31;56625;54.322;18.582;2023-06-19T13:50:02;26.02;51.58
69436;SHT31;56625;54.322;18.582;2023-06-19T13:52:29;26.17;50.88
69436;SHT31;56625;54.322;18.582;2023-06-19T13:54:55;26.16;50.97
69436;SHT31;56625;54.322;18.582;2023-06-19T13:57:22;26.17;50.97
69436;SHT31;56625;54.322;18.582;2023-06-19T13:59:49;26.15;51.01
69436;SHT31;56625;54.322;18.582;2023-06-19T14:02:16;26.12;51.14
69436;SHT31;56625;54.322;18.582;2023-06-19T14:04:42;26.13;51.18
69436;SHT31;56625;54.322;18.582;2023-06-19T14:07:09;26.16;51.27
69436;SHT31;56625;54.322;18.582;2023-06-19T14:09:36;26.21;51.34
69436;SHT31;56625;54.322;18.582;2023-06-19T14:12:04;26.20;51.15
69436;SHT31;56625;54.322;18.582;2023-06-19T14:14:31;26.24;51.11
69436;SHT31;56625;54.322;18.582;2023-06-19T14:16:58;26.34;50.59
69436;SHT31;56625;54.322;18.582;2023-06-19T14:19:24;26.43;49.66
69436;SHT31;56625;54.322;18.582;2023-06-19T14:21:51;26.43;49.79
69436;SHT31;56625;54.322;18.582;2023-06-19T14:24:18;26.45;49.89
69436;SHT31;56625;54.322;18.582;2023-06-19T14:26:44;26.52;49.82
69436;SHT31;56625;54.322;18.582;2023-06-19T14:29:11;26.55;49.59
69436;SHT31;56625;54.322;18.582;2023-06-19T14:31:41;26.50;49.81
69436;SHT31;56625;54.322;18.582;2023-06-19T14:34:07;26.40;50.34
69436;SHT31;56625;54.322;18.582;2023-06-19T14:36:34;26.40;50.71
69436;SHT31;56625;54.322;18.582;2023-06-19T14:39:04;26.36;50.70
69436;SHT31;56625;54.322;18.582;2023-06-19T14:41:31;26.20;51.14
69436;SHT31;56625;54.322;18.582;2023-06-19T14:43:58;26.11;51.38
69436;SHT31;56625;54.322;18.582;2023-06-19T14:46:24;26.07;51.57
69436;SHT31;56625;54.322;18.582;2023-06-19T14:49:06;25.98;51.55
69436;SHT31;56625;54.322;18.582;2023-06-19T14:51:33;25.85;51.85
69436;SHT31;56625;54.322;18.582;2023-06-19T14:54:00;25.75;52.37
69436;SHT31;56625;54.322;18.582;2023-06-19T14:56:26;25.69;52.85
69436;SHT31;56625;54.322;18.582;2023-06-19T14:58:53;25.75;53.12
69436;SHT31;56625;54.322;18.582;2023-06-19T15:01:20;25.91;53.17
69436;SHT31;56625;54.322;18.582;2023-06-19T15:03:46;26.13;53.07
69436;SHT31;56625;54.322;18.582;2023-06-19T15:06:16;26.25;52.72
69436;SHT31;56625;54.322;18.582;2023-06-19T15:08:43;26.26;52.57
69436;SHT31;56625;54.322;18.582;2023-06-19T15:11:10;26.27;52.53
69436;SHT31;56625;54.322;18.582;2023-06-19T15:13:37;26.22;52.48
69436;SHT31;56625;54.322;18.582;2023-06-19T15:16:04;26.21;52.38
69436;SHT31;56625;54.322;18.582;2023-06-19T15:18:36;26.19;52.34
69436;SHT31;56625;54.322;18.582;2023-06-19T15:21:02;26.03;52.41
69436;SHT31;56625;54.322;18.582;2023-06-19T15:23:32;25.84;52.77
69436;SHT31;56625;54.322;18.582;2023-06-19T15:26:00;25.71;53.03
69436;SHT31;56625;54.322;18.582;2023-06-19T15:28:27;25.55;52.75
69436;SHT31;56625;54.322;18.582;2023-06-19T15:30:54;25.43;53.13
69436;SHT31;56625;54.322;18.582;2023-06-19T15:33:21;25.37;53.46